Time;durP1;ratioP1;P1;durP2;ratioP2;P2;SDS_P1;SDS_P2;PMS_P1;PMS_P2;Temp;Humidity;BMP_temperature;BMP_pressure;BME280_temperature;BME280_humidity;BME280_pressure;Samples;Min_cycle;Max_cycle;Signal;HPM_P1;HPM_P2
2021/09/25 00:02:03;;;;;;;7.87;7.17;;;20.50;56.50;;;;;;5079393;28;20253;-49
2021/09/25 00:04:29;;;;;;;10.90;7.83;;;20.60;56.20;;;;;;5088680;28;20685;-48
2021/09/25 00:06:55;;;;;;;9.00;7.67;;;20.70;55.60;;;;;;5085756;28;20205;-50
2021/09/25 00:09:21;;;;;;;8.67;7.80;;;20.80;55.50;;;;;;5080631;28;20544;-51
2021/09/25 00:11:46;;;;;;;8.27;7.57;;;20.40;55.80;;;;;;5085076;28;20187;-49
2021/09/25 00:14:12;;;;;;;7.40;6.70;;;20.50;55.60;;;;;;5086375;28;20441;-50
2021/09/25 00:16:38;;;;;;;8.13;7.43;;;20.50;55.70;;;;;;5075059;28;20202;-47
2021/09/25 00:19:04;;;;;;;8.10;7.27;;;20.60;55.40;;;;;;5080189;28;20299;-48
2021/09/25 00:21:30;;;;;;;8.00;7.20;;;20.60;55.60;;;;;;5088889;28;20211;-49
2021/09/25 00:23:56;;;;;;;7.63;6.93;;;20.70;55.60;;;;;;5082745;28;20528;-48
2021/09/25 00:26:23;;;;;;;8.10;7.30;;;20.80;55.40;;;;;;5080080;28;20764;-48
2021/09/25 00:28:49;;;;;;;9.00;7.10;;;20.80;54.90;;;;;;5078907;28;20482;-49
2021/09/25 00:31:15;;;;;;;8.30;7.40;;;20.70;55.10;;;;;;5078346;28;20476;-49
2021/09/25 00:33:41;;;;;;;8.30;7.50;;;20.80;55.10;;;;;;5079493;28;20476;-48
2021/09/25 00:36:06;;;;;;;8.17;7.43;;;20.90;54.80;;;;;;5078715;28;20246;-47
2021/09/25 00:38:32;;;;;;;8.83;7.20;;;20.80;55.00;;;;;;5071807;28;20213;-47
2021/09/25 00:40:58;;;;;;;7.87;7.10;;;20.80;55.10;;;;;;5080031;28;20250;-49
2021/09/25 00:43:24;;;;;;;8.70;7.60;;;20.70;55.20;;;;;;5076041;28;20661;-50
2021/09/25 00:45:50;;;;;;;8.40;7.60;;;20.60;55.30;;;;;;5072305;28;20446;-48
2021/09/25 00:48:16;;;;;;;7.67;6.97;;;20.40;55.90;;;;;;5073759;28;20648;-48
2021/09/25 00:50:42;;;;;;;7.80;7.00;;;20.30;56.20;;;;;;5089294;28;20565;-47
2021/09/25 00:53:08;;;;;;;8.23;7.20;;;20.10;56.30;;;;;;5080691;28;20445;-49
2021/09/25 00:55:34;;;;;;;8.17;7.37;;;20.20;56.70;;;;;;5079188;28;20199;-48
2021/09/25 00:58:03;;;;;;;12.17;7.40;;;20.30;56.30;;;;;;5077333;28;20192;-49
2021/09/25 01:00:30;;;;;;;7.77;6.97;;;20.00;56.30;;;;;;5077802;28;20481;-51
2021/09/25 01:02:56;;;;;;;8.20;6.80;;;20.00;56.40;;;;;;5086207;28;20434;-50
2021/09/25 01:05:23;;;;;;;7.57;6.87;;;20.00;57.10;;;;;;5082245;28;20438;-50
2021/09/25 01:07:50;;;;;;;7.90;7.10;;;19.80;57.10;;;;;;5076911;28;20253;-48
2021/09/25 01:10:16;;;;;;;7.57;6.90;;;19.90;57.80;;;;;;5082633;28;20436;-50
2021/09/25 01:12:42;;;;;;;7.47;6.67;;;19.90;57.10;;;;;;5079370;28;20464;-47
2021/09/25 01:15:09;;;;;;;7.70;7.00;;;20.10;56.70;;;;;;5077399;28;20437;-48
2021/09/25 01:17:34;;;;;;;7.93;6.57;;;20.00;56.90;;;;;;5077282;28;20434;-50
2021/09/25 01:20:00;;;;;;;7.93;7.23;;;20.00;56.70;;;;;;5075672;28;20885;-49
2021/09/25 01:22:30;;;;;;;8.23;7.40;;;19.90;56.90;;;;;;5085569;28;20238;-47
2021/09/25 01:24:55;;;;;;;7.27;5.90;;;19.90;56.90;;;;;;5079936;28;20191;-47
2021/09/25 01:27:21;;;;;;;7.93;7.00;;;19.70;57.30;;;;;;5055921;28;20456;-48
2021/09/25 01:29:47;;;;;;;11.27;8.30;;;19.70;57.20;;;;;;5078896;28;20273;-49
2021/09/25 01:32:14;;;;;;;7.60;6.90;;;19.60;57.30;;;;;;5087906;28;20226;-48
2021/09/25 01:34:40;;;;;;;7.77;7.07;;;19.40;57.30;;;;;;5081394;28;20853;-47
2021/09/25 01:37:06;;;;;;;8.07;7.27;;;19.30;57.80;;;;;;5069548;28;20438;-52
2021/09/25 01:39:32;;;;;;;7.53;6.23;;;19.20;57.90;;;;;;5078652;28;20234;-47
2021/09/25 01:41:59;;;;;;;9.10;7.27;;;19.30;58.00;;;;;;5082883;28;20435;-48
2021/09/25 01:44:26;;;;;;;8.40;7.60;;;19.30;58.10;;;;;;5078795;28;20502;-47
2021/09/25 01:46:53;;;;;;;7.80;7.10;;;19.40;58.00;;;;;;5076605;28;21117;-47
2021/09/25 01:49:19;;;;;;;7.60;6.90;;;19.60;57.70;;;;;;5081134;28;20584;-48
2021/09/25 01:51:45;;;;;;;8.97;7.87;;;19.70;57.30;;;;;;5085002;28;20524;-47
2021/09/25 01:54:12;;;;;;;7.10;6.40;;;19.70;57.30;;;;;;5088735;28;20202;-47
2021/09/25 01:56:39;;;;;;;7.27;6.60;;;19.90;57.20;;;;;;5084629;28;20283;-47
2021/09/25 01:59:05;;;;;;;8.57;6.70;;;19.90;56.70;;;;;;5076281;28;20442;-48
2021/09/25 02:01:31;;;;;;;7.10;6.40;;;19.90;56.30;;;;;;5087449;28;21370;-50
2021/09/25 02:03:57;;;;;;;6.77;6.17;;;19.90;56.30;;;;;;5088660;28;20460;-50
2021/09/25 02:06:23;;;;;;;7.53;6.83;;;19.90;56.30;;;;;;5077432;28;20206;-46
2021/09/25 02:08:48;;;;;;;7.73;6.57;;;19.90;56.30;;;;;;5079924;28;20184;-47
2021/09/25 02:11:14;;;;;;;7.67;7.07;;;19.90;56.20;;;;;;5081921;28;20195;-48
2021/09/25 02:13:41;;;;;;;7.20;6.60;;;19.90;56.40;;;;;;5077828;28;20199;-49
2021/09/25 02:16:06;;;;;;;7.57;6.83;;;20.00;55.80;;;;;;5079185;28;20437;-49
2021/09/25 02:18:32;;;;;;;26.23;7.10;;;20.00;56.10;;;;;;5074294;28;20474;-47
2021/09/25 02:20:57;;;;;;;7.97;7.17;;;19.60;56.10;;;;;;5081156;28;20249;-48
2021/09/25 02:23:23;;;;;;;7.37;6.70;;;19.20;57.50;;;;;;5086673;28;20222;-48
2021/09/25 02:25:49;;;;;;;6.73;5.60;;;19.30;58.00;;;;;;5083321;28;20238;-47
2021/09/25 02:28:15;;;;;;;10.87;6.40;;;19.40;57.60;;;;;;5081546;28;20235;-47
2021/09/25 02:30:40;;;;;;;8.23;6.83;;;19.50;57.40;;;;;;5083478;28;20191;-47
2021/09/25 02:33:06;;;;;;;7.00;6.40;;;19.60;57.20;;;;;;5078671;28;20241;-50
2021/09/25 02:35:32;;;;;;;7.40;6.30;;;19.10;57.60;;;;;;5084918;28;20213;-47
2021/09/25 02:37:57;;;;;;;6.93;6.10;;;19.00;58.70;;;;;;5085614;28;20270;-50
2021/09/25 02:40:23;;;;;;;7.83;7.13;;;18.60;58.10;;;;;;5086725;28;20234;-49
2021/09/25 02:42:50;;;;;;;8.93;7.20;;;18.60;59.50;;;;;;5090163;28;20214;-47
2021/09/25 02:45:16;;;;;;;7.53;6.70;;;18.40;59.90;;;;;;5081286;28;20482;-50
2021/09/25 02:47:42;;;;;;;7.20;6.50;;;18.50;59.90;;;;;;5086925;28;20492;-47
2021/09/25 02:50:11;;;;;;;7.87;6.53;;;18.70;59.30;;;;;;5075975;28;21448;-47
2021/09/25 02:52:37;;;;;;;7.57;6.87;;;18.80;59.00;;;;;;5082274;28;21004;-48
2021/09/25 02:55:03;;;;;;;7.73;6.57;;;19.00;58.60;;;;;;5077044;28;20438;-47
2021/09/25 02:57:29;;;;;;;7.63;6.00;;;19.20;57.50;;;;;;5086511;28;20433;-46
2021/09/25 02:59:55;;;;;;;7.33;6.63;;;19.30;57.20;;;;;;5087335;28;20481;-48
2021/09/25 03:02:20;;;;;;;8.90;6.77;;;19.40;56.90;;;;;;5086456;28;20207;-48
2021/09/25 03:04:46;;;;;;;6.80;6.20;;;19.50;56.70;;;;;;5091054;28;20210;-48
2021/09/25 03:07:11;;;;;;;9.23;6.97;;;19.50;56.70;;;;;;5089225;28;20195;-47
2021/09/25 03:09:37;;;;;;;6.30;5.80;;;19.60;56.70;;;;;;5092974;28;20688;-49
2021/09/25 03:12:03;;;;;;;6.10;5.50;;;19.60;56.70;;;;;;5085468;28;20191;-47
2021/09/25 03:14:28;;;;;;;7.53;6.83;;;19.40;56.50;;;;;;5092331;28;20195;-49
2021/09/25 03:16:54;;;;;;;7.23;6.50;;;19.40;57.00;;;;;;5078119;28;20279;-49
2021/09/25 03:19:20;;;;;;;7.20;6.50;;;19.30;56.80;;;;;;5085412;28;20657;-48
2021/09/25 03:21:46;;;;;;;8.80;7.00;;;19.20;57.10;;;;;;5082149;28;20200;-48
2021/09/25 03:24:11;;;;;;;8.40;6.90;;;19.20;57.20;;;;;;5077614;28;20207;-51
2021/09/25 03:26:37;;;;;;;7.17;6.47;;;18.90;58.00;;;;;;5087155;28;20945;-52
2021/09/25 03:29:03;;;;;;;7.20;6.50;;;18.60;58.90;;;;;;5081406;28;20230;-48
2021/09/25 03:31:28;;;;;;;8.90;6.70;;;18.70;58.30;;;;;;5077770;28;20563;-47
2021/09/25 03:33:54;;;;;;;7.77;7.07;;;18.70;57.80;;;;;;5084941;28;20188;-49
2021/09/25 03:36:20;;;;;;;7.73;6.40;;;18.60;57.70;;;;;;5076907;28;20191;-53
2021/09/25 03:38:45;;;;;;;7.83;7.03;;;18.30;58.00;;;;;;5079142;28;20195;-52
2021/09/25 03:41:11;;;;;;;9.37;7.30;;;17.90;59.30;;;;;;5079043;28;20223;-47
2021/09/25 03:43:36;;;;;;;7.47;6.77;;;17.70;60.30;;;;;;5084925;28;20597;-49
2021/09/25 03:46:02;;;;;;;7.13;6.43;;;17.90;60.20;;;;;;5086261;28;20191;-50
2021/09/25 03:48:28;;;;;;;7.73;6.90;;;18.20;59.70;;;;;;5089067;28;20195;-51
2021/09/25 03:50:53;;;;;;;7.17;6.47;;;18.10;59.00;;;;;;5080953;28;20264;-52
2021/09/25 03:53:20;;;;;;;7.53;6.80;;;18.00;59.40;;;;;;5080330;28;20833;-47
2021/09/25 03:55:46;;;;;;;10.40;6.33;;;18.00;59.30;;;;;;5072461;28;20200;-52
2021/09/25 03:58:12;;;;;;;7.70;6.90;;;18.00;59.30;;;;;;5085193;28;20578;-53
2021/09/25 04:00:42;;;;;;;6.10;5.60;;;18.10;59.10;;;;;;5089250;28;20573;-47
2021/09/25 04:03:12;;;;;;;7.80;7.10;;;18.00;59.60;;;;;;5073637;28;20192;-48
2021/09/25 04:05:39;;;;;;;7.70;6.90;;;17.60;59.80;;;;;;5078266;28;20450;-52
2021/09/25 04:08:05;;;;;;;7.40;6.70;;;17.50;59.90;;;;;;5076824;28;20524;-48
2021/09/25 04:10:31;;;;;;;8.20;7.40;;;17.00;60.80;;;;;;5080258;28;20444;-47
2021/09/25 04:12:57;;;;;;;7.93;6.80;;;17.00;63.00;;;;;;5085071;28;20437;-52
2021/09/25 04:15:23;;;;;;;9.43;7.20;;;17.10;62.00;;;;;;5076230;28;20498;-48
2021/09/25 04:17:49;;;;;;;7.57;6.70;;;17.20;61.80;;;;;;5084258;28;20219;-48
2021/09/25 04:20:15;;;;;;;10.33;7.27;;;17.40;60.80;;;;;;5085500;28;20223;-52
2021/09/25 04:22:41;;;;;;;7.90;7.10;;;17.40;60.40;;;;;;5080998;28;20491;-52
2021/09/25 04:25:07;;;;;;;7.70;7.00;;;17.40;61.00;;;;;;5075258;28;20278;-48
2021/09/25 04:27:33;;;;;;;6.20;5.67;;;17.40;59.80;;;;;;5083252;28;20199;-49
2021/09/25 04:30:02;;;;;;;9.07;7.07;;;17.40;61.60;;;;;;5077359;28;20999;-47
2021/09/25 04:32:28;;;;;;;7.70;7.00;;;17.20;59.80;;;;;;5074249;28;20192;-48
2021/09/25 04:34:54;;;;;;;6.87;6.27;;;17.30;61.90;;;;;;5082949;28;20433;-48
2021/09/25 04:37:20;;;;;;;8.33;7.33;;;17.50;60.30;;;;;;5078902;28;20188;-47
2021/09/25 04:39:46;;;;;;;8.13;7.20;;;17.50;59.20;;;;;;5076107;28;20478;-47
2021/09/25 04:42:12;;;;;;;6.93;6.23;;;17.20;61.10;;;;;;5082298;28;20783;-47
2021/09/25 04:44:38;;;;;;;8.90;7.27;;;17.30;61.60;;;;;;5085757;28;20260;-47
2021/09/25 04:47:03;;;;;;;7.47;6.80;;;17.30;60.40;;;;;;5082114;28;20446;-46
2021/09/25 04:49:29;;;;;;;7.30;6.60;;;17.60;60.90;;;;;;5076828;28;20599;-49
2021/09/25 04:51:55;;;;;;;7.87;7.10;;;17.70;59.40;;;;;;5075307;28;20282;-49
2021/09/25 04:54:20;;;;;;;9.07;8.27;;;17.60;58.40;;;;;;5075463;28;20659;-49
2021/09/25 04:56:46;;;;;;;8.10;7.40;;;17.00;59.30;;;;;;5073980;28;20196;-48
2021/09/25 04:59:12;;;;;;;8.53;7.73;;;16.30;61.10;;;;;;5075147;28;20188;-49
2021/09/25 05:01:37;;;;;;;9.50;7.70;;;16.10;62.60;;;;;;5080381;28;20302;-49
2021/09/25 05:04:04;;;;;;;8.73;7.93;;;16.10;63.20;;;;;;5078334;28;20226;-47
2021/09/25 05:06:30;;;;;;;10.70;7.77;;;16.20;62.70;;;;;;5076870;28;20191;-49
2021/09/25 05:08:57;;;;;;;8.70;7.27;;;16.50;61.90;;;;;;5078167;28;20438;-47
2021/09/25 05:11:24;;;;;;;8.03;7.23;;;16.60;61.60;;;;;;5081599;28;20437;-47
2021/09/25 05:13:50;;;;;;;9.37;6.13;;;16.50;62.00;;;;;;5084034;28;21158;-50
2021/09/25 05:16:16;;;;;;;7.60;6.57;;;16.30;65.70;;;;;;5076251;28;20491;-48
2021/09/25 05:18:42;;;;;;;7.40;6.60;;;16.50;68.00;;;;;;5080917;28;20492;-46
2021/09/25 05:21:08;;;;;;;7.40;6.30;;;17.00;64.90;;;;;;5075904;28;20817;-50
2021/09/25 05:23:35;;;;;;;6.80;6.20;;;17.40;61.80;;;;;;5075483;28;20199;-48
2021/09/25 05:26:00;;;;;;;7.17;6.50;;;17.70;60.00;;;;;;5076430;28;20502;-48
2021/09/25 05:28:26;;;;;;;10.97;6.90;;;18.00;58.50;;;;;;5077495;28;20482;-47
2021/09/25 05:30:52;;;;;;;8.20;7.00;;;18.30;57.70;;;;;;5078249;28;20196;-49
2021/09/25 05:33:18;;;;;;;8.50;7.60;;;18.40;56.90;;;;;;5077268;28;20290;-49
2021/09/25 05:35:43;;;;;;;6.93;6.33;;;18.60;56.20;;;;;;5081542;28;20195;-48
2021/09/25 05:38:09;;;;;;;8.10;7.40;;;18.60;56.00;;;;;;5087620;28;20203;-46
2021/09/25 05:40:34;;;;;;;8.03;6.93;;;18.70;55.60;;;;;;5089053;28;20261;-46
2021/09/25 05:43:00;;;;;;;7.83;7.13;;;18.60;55.70;;;;;;5080859;28;20711;-51
2021/09/25 05:45:25;;;;;;;9.80;6.40;;;18.70;55.50;;;;;;5080833;28;20187;-47
2021/09/25 05:47:51;;;;;;;6.57;5.97;;;18.70;55.40;;;;;;5088433;28;20719;-48
2021/09/25 05:50:17;;;;;;;6.60;6.00;;;18.80;55.30;;;;;;5079410;28;20742;-48
2021/09/25 05:52:43;;;;;;;7.37;6.73;;;18.90;54.90;;;;;;5086944;28;20186;-47
2021/09/25 05:55:09;;;;;;;6.70;6.10;;;19.00;54.70;;;;;;5084098;28;20188;-47
2021/09/25 05:57:35;;;;;;;8.63;7.83;;;19.10;54.60;;;;;;5086633;28;20188;-46
2021/09/25 06:00:02;;;;;;;7.63;6.83;;;19.10;54.40;;;;;;5077873;28;20496;-47
2021/09/25 06:02:27;;;;;;;7.30;6.60;;;19.10;54.40;;;;;;5084634;28;20196;-47
2021/09/25 06:04:53;;;;;;;7.20;6.50;;;19.20;54.30;;;;;;5080952;28;20528;-47
2021/09/25 06:07:19;;;;;;;7.83;7.03;;;19.20;54.10;;;;;;5076376;28;20184;-47
2021/09/25 06:09:45;;;;;;;7.30;5.90;;;19.20;53.90;;;;;;5093869;28;20819;-47
2021/09/25 06:12:11;;;;;;;6.60;6.00;;;19.30;54.30;;;;;;5081370;28;20438;-47
2021/09/25 06:14:37;;;;;;;7.90;7.20;;;19.30;54.10;;;;;;5091331;28;20658;-48
2021/09/25 06:17:04;;;;;;;6.80;6.20;;;19.40;53.90;;;;;;5084984;28;20457;-48
2021/09/25 06:19:29;;;;;;;6.87;6.27;;;19.40;54.00;;;;;;5083009;28;20510;-47
2021/09/25 06:21:55;;;;;;;6.90;5.87;;;19.60;53.90;;;;;;5088270;28;20442;-48
2021/09/25 06:24:21;;;;;;;7.90;6.43;;;19.50;54.10;;;;;;5082722;28;20294;-48
2021/09/25 06:26:46;;;;;;;6.50;5.70;;;19.50;54.20;;;;;;5085228;28;20570;-47
2021/09/25 06:29:12;;;;;;;6.57;5.93;;;19.60;54.00;;;;;;5087288;28;20704;-47
2021/09/25 06:31:38;;;;;;;7.50;6.73;;;19.80;53.70;;;;;;5082066;28;20191;-47
2021/09/25 06:34:03;;;;;;;8.07;7.00;;;19.80;53.60;;;;;;5092467;28;20190;-46
2021/09/25 06:36:32;;;;;;;7.43;6.73;;;19.80;53.60;;;;;;5084707;28;20657;-47
2021/09/25 06:38:57;;;;;;;6.83;6.23;;;19.80;53.50;;;;;;5069756;28;20203;-47
2021/09/25 06:41:23;;;;;;;6.50;6.00;;;19.90;53.40;;;;;;5083022;28;20489;-51
2021/09/25 06:43:49;;;;;;;8.10;7.30;;;20.10;53.90;;;;;;5083015;28;20192;-48
2021/09/25 06:46:14;;;;;;;7.70;6.90;;;20.20;53.00;;;;;;5077078;28;20198;-47
2021/09/25 06:48:41;;;;;;;7.60;6.90;;;20.20;52.90;;;;;;5090060;28;20215;-49
2021/09/25 06:51:07;;;;;;;8.13;7.00;;;20.30;53.10;;;;;;5089176;28;20195;-48
2021/09/25 06:53:33;;;;;;;7.00;6.40;;;20.30;53.30;;;;;;5085868;28;20451;-47
2021/09/25 06:55:58;;;;;;;7.77;6.97;;;20.50;53.00;;;;;;5087299;28;20433;-48
2021/09/25 06:58:24;;;;;;;7.70;6.90;;;20.70;52.80;;;;;;5088537;28;20437;-47
2021/09/25 07:00:50;;;;;;;8.10;7.27;;;20.70;53.10;;;;;;5088428;28;20219;-47
2021/09/25 07:03:17;;;;;;;7.97;6.63;;;20.80;52.80;;;;;;5088637;28;20620;-47
2021/09/25 07:05:43;;;;;;;6.93;6.23;;;20.90;53.00;;;;;;5093065;28;20191;-47
2021/09/25 07:08:09;;;;;;;6.07;5.57;;;20.80;53.00;;;;;;5082803;28;20919;-49
2021/09/25 07:10:36;;;;;;;7.67;6.90;;;20.80;53.60;;;;;;5087981;28;20833;-47
2021/09/25 07:13:03;;;;;;;7.37;6.67;;;20.90;53.30;;;;;;5085741;28;20441;-48
2021/09/25 07:15:30;;;;;;;6.83;6.23;;;20.70;53.90;;;;;;5083998;28;20444;-49
2021/09/25 07:17:55;;;;;;;7.20;6.50;;;21.00;53.60;;;;;;5080988;28;20457;-48
2021/09/25 07:20:21;;;;;;;7.50;6.90;;;21.30;53.30;;;;;;5086438;28;20493;-48
2021/09/25 07:22:51;;;;;;;7.87;7.03;;;21.60;52.90;;;;;;5077481;28;20576;-48
2021/09/25 07:25:17;;;;;;;8.17;7.37;;;21.70;52.70;;;;;;5082503;28;20200;-45
2021/09/25 07:27:43;;;;;;;7.73;6.93;;;21.80;52.60;;;;;;5091264;28;20471;-48
2021/09/25 07:30:22;;;;;;;7.47;6.70;;;21.90;52.30;;;;;;5083339;28;20468;-48
2021/09/25 07:32:48;;;;;;;7.83;7.13;;;22.10;52.10;;;;;;5071015;28;20446;-52
2021/09/25 07:35:15;;;;;;;7.07;6.37;;;22.40;51.70;;;;;;5087841;28;20441;-49
2021/09/25 07:37:42;;;;;;;9.13;6.73;;;22.50;51.40;;;;;;5083636;28;20642;-46
2021/09/25 07:40:09;;;;;;;8.33;7.53;;;22.40;51.20;;;;;;5092453;28;20987;-48
2021/09/25 07:42:35;;;;;;;7.03;6.33;;;22.40;51.20;;;;;;5085184;28;20472;-48
2021/09/25 07:45:01;;;;;;;8.40;7.60;;;22.50;51.30;;;;;;5080494;28;20470;-50
2021/09/25 07:47:26;;;;;;;11.20;7.03;;;22.50;51.10;;;;;;5086875;28;20191;-51
2021/09/25 07:49:52;;;;;;;7.73;6.90;;;22.20;51.90;;;;;;5092447;28;20681;-49
2021/09/25 07:52:18;;;;;;;8.20;7.40;;;22.20;52.70;;;;;;5092406;28;20232;-49
2021/09/25 07:54:43;;;;;;;7.73;7.03;;;22.20;52.50;;;;;;5080610;28;20198;-48
2021/09/25 07:57:09;;;;;;;7.63;6.83;;;21.70;53.10;;;;;;5089406;28;20650;-49
2021/09/25 07:59:35;;;;;;;7.80;7.10;;;21.60;53.00;;;;;;5091778;28;20215;-48
2021/09/25 08:02:01;;;;;;;10.10;7.10;;;21.40;53.30;;;;;;5089490;28;20460;-49
2021/09/25 08:04:26;;;;;;;7.80;6.70;;;21.10;53.60;;;;;;5082323;28;20330;-49
2021/09/25 08:06:52;;;;;;;8.40;7.13;;;20.70;55.10;;;;;;5090077;28;20199;-51
2021/09/25 08:09:20;;;;;;;7.00;6.33;;;20.80;55.30;;;;;;5079065;28;20195;-52
2021/09/25 08:11:46;;;;;;;7.30;6.60;;;20.70;55.50;;;;;;5086499;28;20195;-50
2021/09/25 08:14:12;;;;;;;7.30;6.60;;;20.80;55.10;;;;;;5081246;28;20441;-48
2021/09/25 08:16:37;;;;;;;10.07;6.77;;;21.10;55.10;;;;;;5086247;28;20813;-48
2021/09/25 08:19:03;;;;;;;6.87;6.23;;;21.40;54.70;;;;;;5084598;28;20194;-48
2021/09/25 08:21:29;;;;;;;6.47;5.83;;;21.80;54.30;;;;;;5090793;28;20738;-49
2021/09/25 08:23:55;;;;;;;6.83;6.17;;;22.20;53.00;;;;;;5081978;28;20605;-49
2021/09/25 08:26:20;;;;;;;6.20;5.70;;;22.60;52.10;;;;;;5083220;28;20713;-49
2021/09/25 08:28:46;;;;;;;5.83;5.27;;;22.80;52.50;;;;;;5084035;28;20959;-49
2021/09/25 08:31:12;;;;;;;6.20;5.20;;;23.00;52.10;;;;;;5081134;28;20191;-49
2021/09/25 08:33:37;;;;;;;7.50;6.50;;;23.10;51.50;;;;;;5082481;28;20290;-52
2021/09/25 08:36:03;;;;;;;6.17;5.47;;;23.20;51.40;;;;;;5090534;28;20196;-49
2021/09/25 08:38:29;;;;;;;6.53;5.93;;;23.50;51.00;;;;;;5090221;28;20187;-49
2021/09/25 08:41:01;;;;;;;6.77;6.17;;;23.70;50.90;;;;;;5090539;28;20250;-52
2021/09/25 08:43:27;;;;;;;5.97;5.47;;;23.70;50.90;;;;;;5071430;28;20193;-49
2021/09/25 08:46:01;;;;;;;8.00;6.13;;;23.50;50.90;;;;;;5077823;28;20804;-50
2021/09/25 08:48:28;;;;;;;6.57;5.97;;;23.70;50.50;;;;;;5088329;28;20584;-51
2021/09/25 08:50:55;;;;;;;6.53;5.93;;;23.90;50.20;;;;;;5086546;28;20438;-49
2021/09/25 08:53:21;;;;;;;7.53;6.10;;;23.80;50.00;;;;;;5087734;28;20445;-49
2021/09/25 08:55:47;;;;;;;5.87;5.40;;;23.90;49.90;;;;;;5063083;28;20469;-50
2021/09/25 08:58:13;;;;;;;6.47;5.90;;;24.00;50.00;;;;;;5080332;28;20799;-51
2021/09/25 09:00:47;;;;;;;6.00;5.50;;;24.20;49.70;;;;;;5086804;28;20592;-47
2021/09/25 09:03:27;;;;;;;5.20;4.80;;;24.50;49.00;;;;;;5070827;28;20712;-48
2021/09/25 09:06:07;;;;;;;5.30;4.90;;;24.60;48.20;;;;;;5085967;28;20940;-50
2021/09/25 09:08:33;;;;;;;6.27;5.67;;;25.00;48.20;;;;;;5079435;28;20437;-48
2021/09/25 09:11:00;;;;;;;6.43;5.80;;;24.90;47.40;;;;;;5081959;28;20445;-50
2021/09/25 09:13:26;;;;;;;4.97;4.57;;;24.60;47.80;;;;;;5079929;28;20445;-47
2021/09/25 09:15:53;;;;;;;5.90;5.30;;;24.80;47.70;;;;;;5080281;28;20434;-49
2021/09/25 09:18:22;;;;;;;6.73;5.43;;;24.70;47.50;;;;;;5089622;28;20429;-47
2021/09/25 09:21:08;;;;;;;4.90;4.50;;;24.50;47.50;;;;;;5084651;28;20481;-48
2021/09/25 09:23:36;;;;;;;6.30;4.33;;;24.60;48.20;;;;;;5081885;28;20540;-49
2021/09/25 09:26:04;;;;;;;5.77;4.80;;;24.50;48.40;;;;;;5086448;28;20525;-54
2021/09/25 09:28:32;;;;;;;5.27;4.87;;;24.90;48.70;;;;;;5082308;28;20469;-49
2021/09/25 09:31:00;;;;;;;5.30;4.80;;;25.20;47.60;;;;;;5086409;28;20920;-49
2021/09/25 09:33:34;;;;;;;5.40;4.90;;;25.20;47.10;;;;;;5085675;28;20442;-49
2021/09/25 09:36:19;;;;;;;5.27;4.87;;;25.50;46.60;;;;;;5084917;28;20928;-49
2021/09/25 09:38:53;;;;;;;5.63;4.60;;;25.60;46.60;;;;;;5088899;28;20437;-48
2021/09/25 09:41:31;;;;;;;4.97;4.57;;;25.80;46.80;;;;;;5084169;28;20509;-49
2021/09/25 09:44:00;;;;;;;5.37;4.87;;;26.20;46.00;;;;;;5078911;28;20569;-53
2021/09/25 09:46:35;;;;;;;5.47;4.97;;;26.40;45.80;;;;;;5087603;28;20437;-48
2021/09/25 09:49:01;;;;;;;6.93;5.33;;;26.50;45.60;;;;;;5089605;28;20535;-51
2021/09/25 09:51:40;;;;;;;5.40;5.00;;;26.70;45.10;;;;;;5089252;28;20936;-50
2021/09/25 09:54:40;;;;;;;5.40;4.90;;;26.50;44.80;;;;;;5076208;28;20450;-48
2021/09/25 09:57:14;;;;;;;5.47;5.03;;;26.60;45.20;;;;;;5052487;28;20453;-49
2021/09/25 09:59:41;;;;;;;5.73;5.23;;;26.60;44.80;;;;;;5083589;28;21001;-48
2021/09/25 10:02:07;;;;;;;5.97;5.17;;;26.80;44.70;;;;;;5082671;28;20449;-49
2021/09/25 10:04:33;;;;;;;4.87;4.47;;;27.10;44.80;;;;;;5074859;28;20425;-48
2021/09/25 10:06:59;;;;;;;5.07;4.60;;;27.40;44.20;;;;;;5081748;28;20422;-47
2021/09/25 10:09:30;;;;;;;7.23;4.47;;;27.40;43.30;;;;;;5085884;28;20428;-48
2021/09/25 10:12:00;;;;;;;5.77;5.27;;;27.50;43.60;;;;;;5083509;28;20619;-49
2021/09/25 10:14:34;;;;;;;5.50;5.10;;;27.10;43.90;;;;;;5071615;28;20456;-48
2021/09/25 10:17:04;;;;;;;7.10;4.83;;;27.40;44.00;;;;;;5081945;28;20540;-49
2021/09/25 10:19:31;;;;;;;6.50;4.30;;;27.70;43.10;;;;;;5072118;28;20514;-48
2021/09/25 10:22:02;;;;;;;5.60;5.00;;;28.00;43.40;;;;;;5077207;28;20431;-49
2021/09/25 10:24:34;;;;;;;6.27;5.77;;;28.30;42.30;;;;;;5081390;28;20465;-48
2021/09/25 10:27:03;;;;;;;5.40;4.90;;;28.40;41.70;;;;;;5087243;28;20445;-50
2021/09/25 10:29:29;;;;;;;4.90;4.50;;;28.30;41.70;;;;;;5075334;28;20458;-53
2021/09/25 10:32:19;;;;;;;6.10;5.60;;;28.50;42.00;;;;;;5081514;28;20449;-53
2021/09/25 10:35:09;;;;;;;5.83;4.60;;;28.60;40.90;;;;;;5081191;28;20274;-49
2021/09/25 10:37:58;;;;;;;6.53;4.60;;;28.80;40.80;;;;;;5077934;28;20484;-49
2021/09/25 10:40:32;;;;;;;5.00;4.60;;;28.80;41.70;;;;;;5087342;28;21064;-48
2021/09/25 10:43:28;;;;;;;8.40;4.83;;;29.10;41.70;;;;;;5088005;28;20437;-54
2021/09/25 10:45:59;;;;;;;4.30;4.00;;;29.40;41.10;;;;;;5074966;28;20468;-53
2021/09/25 10:48:26;;;;;;;5.00;4.60;;;29.70;40.80;;;;;;5087570;28;20429;-48
2021/09/25 10:51:05;;;;;;;4.60;4.30;;;29.80;40.40;;;;;;5085907;28;20464;-54
2021/09/25 10:53:37;;;;;;;5.30;4.80;;;30.10;40.20;;;;;;5075466;28;20952;-49
2021/09/25 10:56:15;;;;;;;4.80;4.40;;;30.20;38.80;;;;;;5076407;28;20429;-48
2021/09/25 10:58:41;;;;;;;4.90;4.50;;;30.50;38.80;;;;;;5084854;28;20440;-48
2021/09/25 11:01:18;;;;;;;4.80;4.47;;;30.20;37.80;;;;;;5092659;28;20488;-49
2021/09/25 11:03:55;;;;;;;6.80;6.00;;;30.10;38.60;;;;;;5087819;28;20649;-49
2021/09/25 11:06:49;;;;;;;4.77;4.40;;;30.20;38.80;;;;;;5090551;28;20500;-50
2021/09/25 11:09:17;;;;;;;4.50;4.20;;;30.50;37.60;;;;;;5082265;28;20446;-48
2021/09/25 11:11:49;;;;;;;4.70;4.30;;;30.50;38.00;;;;;;5090769;28;20430;-51
2021/09/25 11:14:19;;;;;;;4.00;3.80;;;30.70;38.70;;;;;;5090225;28;20437;-48
2021/09/25 11:16:59;;;;;;;5.13;4.80;;;30.90;38.20;;;;;;5091491;28;20904;-49
2021/09/25 11:19:25;;;;;;;4.93;4.60;;;31.00;37.70;;;;;;5087568;28;20484;-47
2021/09/25 11:22:00;;;;;;;5.00;4.70;;;30.90;36.60;;;;;;5088459;28;20477;-48
2021/09/25 11:24:28;;;;;;;4.37;4.07;;;30.90;37.30;;;;;;5084306;28;20191;-49
2021/09/25 11:26:53;;;;;;;4.87;4.50;;;31.00;36.80;;;;;;5082477;28;20433;-48
2021/09/25 11:29:19;;;;;;;4.23;3.93;;;31.10;36.40;;;;;;5085004;28;20474;-50
2021/09/25 11:31:49;;;;;;;4.40;4.10;;;31.20;36.60;;;;;;5078540;28;20191;-49
2021/09/25 11:34:26;;;;;;;7.03;4.27;;;31.30;36.80;;;;;;5089057;28;20635;-48
2021/09/25 11:36:54;;;;;;;4.37;3.97;;;31.40;36.50;;;;;;5081903;28;20450;-46
2021/09/25 11:39:39;;;;;;;4.73;4.10;;;31.60;36.70;;;;;;5083559;28;20418;-49
2021/09/25 11:42:11;;;;;;;5.10;4.70;;;31.80;36.70;;;;;;5077250;28;20453;-47
2021/09/25 11:44:48;;;;;;;4.70;4.40;;;31.90;35.40;;;;;;5077943;28;20926;-47
2021/09/25 11:47:47;;;;;;;4.47;4.17;;;31.90;35.40;;;;;;5082495;28;20549;-47
2021/09/25 11:50:20;;;;;;;4.47;4.17;;;32.20;34.90;;;;;;5059821;28;20429;-47
2021/09/25 11:52:59;;;;;;;4.50;4.10;;;32.40;35.20;;;;;;5083986;28;20472;-46
2021/09/25 11:55:26;;;;;;;5.67;4.77;;;32.20;34.90;;;;;;5081750;28;20433;-51
2021/09/25 11:57:55;;;;;;;4.87;4.47;;;32.30;34.50;;;;;;5076573;28;20519;-48
2021/09/25 12:00:32;;;;;;;3.80;3.60;;;32.20;34.20;;;;;;5080396;28;21047;-46
2021/09/25 12:03:00;;;;;;;4.30;4.00;;;32.10;34.90;;;;;;5075990;28;20545;-48
2021/09/25 12:05:34;;;;;;;4.87;4.53;;;32.10;34.60;;;;;;5080141;28;20521;-47
2021/09/25 12:08:12;;;;;;;4.47;4.17;;;32.20;35.30;;;;;;5076860;28;20450;-47
2021/09/25 12:10:41;;;;;;;4.67;4.37;;;32.40;34.80;;;;;;5087622;28;20471;-46
2021/09/25 12:13:09;;;;;;;4.53;4.13;;;32.50;34.30;;;;;;5078883;28;20482;-51
2021/09/25 12:15:37;;;;;;;5.47;4.97;;;32.50;34.10;;;;;;5086659;28;20444;-50
2021/09/25 12:18:10;;;;;;;7.13;4.93;;;32.50;34.60;;;;;;5087131;28;20921;-48
2021/09/25 12:20:35;;;;;;;4.83;4.50;;;32.50;34.10;;;;;;5087941;28;20926;-48
2021/09/25 12:23:04;;;;;;;4.23;3.83;;;32.70;33.60;;;;;;5088963;28;20468;-48
2021/09/25 12:25:34;;;;;;;4.57;4.17;;;32.50;35.10;;;;;;5090260;28;20238;-49
2021/09/25 12:28:00;;;;;;;4.40;4.00;;;32.90;34.90;;;;;;5087129;28;20473;-49
2021/09/25 12:30:25;;;;;;;5.47;4.77;;;33.10;34.40;;;;;;5091910;28;20934;-47
2021/09/25 12:33:04;;;;;;;5.80;4.63;;;33.20;33.30;;;;;;5081521;28;20218;-49
2021/09/25 12:35:29;;;;;;;4.30;4.03;;;33.10;33.00;;;;;;5082223;28;20198;-47
2021/09/25 12:37:55;;;;;;;4.03;3.63;;;32.70;33.90;;;;;;5085621;28;20479;-51
2021/09/25 12:40:21;;;;;;;4.30;4.00;;;32.90;31.80;;;;;;5082082;28;20238;-48
2021/09/25 12:42:50;;;;;;;4.00;3.70;;;33.10;31.00;;;;;;5086046;28;20198;-49
2021/09/25 12:45:16;;;;;;;3.50;3.20;;;33.20;31.30;;;;;;5082117;28;20438;-48
2021/09/25 12:47:42;;;;;;;3.70;3.40;;;33.10;30.40;;;;;;5078551;28;20430;-47
2021/09/25 12:50:19;;;;;;;4.23;3.93;;;33.30;31.80;;;;;;5087760;28;20432;-47